Time;durP1;ratioP1;P1;durP2;ratioP2;P2;SDS_P1;SDS_P2;PMS_P1;PMS_P2;Temp;Humidity;BMP_temperature;BMP_pressure;BME280_temperature;BME280_humidity;BME280_pressure;Samples;Min_cycle;Max_cycle;Signal;HPM_P1;HPM_P2
2023/06/24 00:00:32;;;;;;;;;;;;;;;;;;4897966;29;19911;-79
2023/06/24 00:03:01;;;;;;;;;;;;;;;;;;4897962;29;19915;-79
2023/06/24 00:05:27;;;;;;;;;;;;;;;;;;4897880;29;19908;-79
2023/06/24 00:07:56;;;;;;;;;;;;;;;;;;4898013;29;19913;-79
2023/06/24 00:10:23;;;;;;;;;;;;;;;;;;4897912;29;19911;-79
2023/06/24 00:12:49;;;;;;;;;;;;;;;;;;4898207;29;19911;-78
2023/06/24 00:15:15;;;;;;;;;;;;;;;;;;4897786;29;19914;-79
2023/06/24 00:17:41;;;;;;;;;;;;;;;;;;4898191;29;19907;-79
2023/06/24 00:20:10;;;;;;;;;;;;;;;;;;4897906;29;19916;-78
2023/06/24 00:22:36;;;;;;;;;;;;;;;;;;4897551;29;20040;-79
2023/06/24 00:25:02;;;;;;;;;;;;;;;;;;4898177;29;19911;-79
2023/06/24 00:27:29;;;;;;;;;;;;;;;;;;4897648;29;19911;-79
2023/06/24 00:29:55;;;;;;;;;;;;;;;;;;4898288;29;19908;-78
2023/06/24 00:32:21;;;;;;;;;;;;;;;;;;4897560;29;19908;-79
2023/06/24 00:34:50;;;;;;;;;;;;;;;;;;4897445;29;19911;-79
2023/06/24 00:37:16;;;;;;;;;;;;;;;;;;4880926;29;19913;-79
2023/06/24 00:39:42;;;;;;;;;;;;;;;;;;4897669;29;19966;-79
2023/06/24 00:42:09;;;;;;;;;;;;;;;;;;4897644;29;19925;-79
2023/06/24 00:44:37;;;;;;;;;;;;;;;;;;4897697;29;19914;-79
2023/06/24 00:47:03;;;;;;;;;;;;;;;;;;4899375;29;19930;-79
2023/06/24 00:49:29;;;;;;;;;;;;;;;;;;4901433;29;19912;-79
2023/06/24 00:51:55;;;;;;;;;;;;;;;;;;4901237;29;19914;-79
2023/06/24 00:54:22;;;;;;;;;;;;;;;;;;4901131;29;19911;-78
2023/06/24 00:56:48;;;;;;;;;;;;;;;;;;4901250;29;20272;-79
2023/06/24 00:59:14;;;;;;;;;;;;;;;;;;4900900;29;19923;-78
2023/06/24 01:01:40;;;;;;;;;;;;;;;;;;4884197;29;19915;-79
2023/06/24 01:04:06;;;;;;;;;;;;;;;;;;4900600;29;19908;-79
2023/06/24 01:06:32;;;;;;;;;;;;;;;;;;4900866;29;19911;-78
2023/06/24 01:09:00;;;;;;;;;;;;;;;;;;4900787;29;19963;-78
2023/06/24 01:11:26;;;;;;;;;;;;;;;;;;4901033;29;19913;-79
2023/06/24 01:13:52;;;;;;;;;;;;;;;;;;4900723;29;19918;-78
2023/06/24 01:16:18;;;;;;;;;;;;;;;;;;4900814;29;20383;-78
2023/06/24 01:18:45;;;;;;;;;;;;;;;;;;4900690;29;19978;-78
2023/06/24 01:21:11;;;;;;;;;;;;;;;;;;4900597;29;19907;-78
2023/06/24 01:23:37;;;;;;;;;;;;;;;;;;4900347;29;19924;-78
2023/06/24 01:26:03;;;;;;;;;;;;;;;;;;4900554;29;19911;-78
2023/06/24 01:28:29;;;;;;;;;;;;;;;;;;4900965;29;19914;-78
2023/06/24 01:30:55;;;;;;;;;;;;;;;;;;4900339;29;19912;-78
2023/06/24 01:33:22;;;;;;;;;;;;;;;;;;4900140;29;19922;-78
2023/06/24 01:35:48;;;;;;;;;;;;;;;;;;4900732;29;19907;-78
2023/06/24 01:38:14;;;;;;;;;;;;;;;;;;4900399;29;19907;-78
2023/06/24 01:40:40;;;;;;;;;;;;;;;;;;4883526;29;19907;-78
2023/06/24 01:43:06;;;;;;;;;;;;;;;;;;4900278;29;20273;-78
2023/06/24 01:45:33;;;;;;;;;;;;;;;;;;4900549;29;19908;-78
2023/06/24 01:47:59;;;;;;;;;;;;;;;;;;4900113;29;19934;-78
2023/06/24 01:50:25;;;;;;;;;;;;;;;;;;4900484;29;19911;-78
2023/06/24 01:52:51;;;;;;;;;;;;;;;;;;4883861;29;19918;-78
2023/06/24 01:55:18;;;;;;;;;;;;;;;;;;4899954;29;19911;-78
2023/06/24 01:57:44;;;;;;;;;;;;;;;;;;4899719;29;20424;-78
2023/06/24 02:00:10;;;;;;;;;;;;;;;;;;4900357;29;19908;-78
2023/06/24 02:02:36;;;;;;;;;;;;;;;;;;4899543;29;19915;-78
2023/06/24 02:05:02;;;;;;;;;;;;;;;;;;4900182;29;19911;-78
2023/06/24 02:07:32;;;;;;;;;;;;;;;;;;4899953;29;19911;-78
2023/06/24 02:09:58;;;;;;;;;;;;;;;;;;4899831;29;20250;-78
2023/06/24 02:12:24;;;;;;;;;;;;;;;;;;4883397;29;19914;-78
2023/06/24 02:14:50;;;;;;;;;;;;;;;;;;4899379;29;19914;-77
2023/06/24 02:17:16;;;;;;;;;;;;;;;;;;4899665;29;19962;-78
2023/06/24 02:19:42;;;;;;;;;;;;;;;;;;4899945;29;19918;-78
2023/06/24 02:22:09;;;;;;;;;;;;;;;;;;4899437;29;19919;-77
2023/06/24 02:24:36;;;;;;;;;;;;;;;;;;4899390;29;19916;-78
2023/06/24 02:27:02;;;;;;;;;;;;;;;;;;4899534;29;19907;-78
2023/06/24 02:29:28;;;;;;;;;;;;;;;;;;4899165;29;19912;-78
2023/06/24 02:31:54;;;;;;;;;;;;;;;;;;4899187;29;19911;-78
2023/06/24 02:34:20;;;;;;;;;;;;;;;;;;4899764;29;19918;-78
2023/06/24 02:36:47;;;;;;;;;;;;;;;;;;4899291;29;19954;-77
2023/06/24 02:39:13;;;;;;;;;;;;;;;;;;4899523;29;19914;-78
2023/06/24 02:41:39;;;;;;;;;;;;;;;;;;4899101;29;19919;-78
2023/06/24 02:44:05;;;;;;;;;;;;;;;;;;4898792;29;20223;-78
2023/06/24 02:46:31;;;;;;;;;;;;;;;;;;4899315;29;19913;-78
2023/06/24 02:48:58;;;;;;;;;;;;;;;;;;4899354;29;19908;-78
2023/06/24 02:51:24;;;;;;;;;;;;;;;;;;4882354;29;19911;-78
2023/06/24 02:53:50;;;;;;;;;;;;;;;;;;4899163;29;19954;-78
2023/06/24 02:56:20;;;;;;;;;;;;;;;;;;4899239;29;19914;-78
2023/06/24 02:58:47;;;;;;;;;;;;;;;;;;4898616;29;19918;-77
2023/06/24 03:01:13;;;;;;;;;;;;;;;;;;4898825;29;19907;-78
2023/06/24 03:03:39;;;;;;;;;;;;;;;;;;4898819;29;19923;-78
2023/06/24 03:06:05;;;;;;;;;;;;;;;;;;4899158;29;19918;-78
2023/06/24 03:08:32;;;;;;;;;;;;;;;;;;4881684;29;19911;-78
2023/06/24 03:10:58;;;;;;;;;;;;;;;;;;4898352;29;19914;-78
2023/06/24 03:13:24;;;;;;;;;;;;;;;;;;4898506;29;19911;-78
2023/06/24 03:15:50;;;;;;;;;;;;;;;;;;4898564;29;19911;-78
2023/06/24 03:18:17;;;;;;;;;;;;;;;;;;4898605;29;19908;-78
2023/06/24 03:20:43;;;;;;;;;;;;;;;;;;4898792;29;19919;-78
2023/06/24 03:23:09;;;;;;;;;;;;;;;;;;4898146;29;19958;-77
2023/06/24 03:25:35;;;;;;;;;;;;;;;;;;4898413;29;20364;-77
2023/06/24 03:28:03;;;;;;;;;;;;;;;;;;4897937;29;19911;-78
2023/06/24 03:30:29;;;;;;;;;;;;;;;;;;4898461;29;19907;-78
2023/06/24 03:32:57;;;;;;;;;;;;;;;;;;4898347;29;19959;-77
2023/06/24 03:35:23;;;;;;;;;;;;;;;;;;4898222;29;19912;-77
2023/06/24 03:37:49;;;;;;;;;;;;;;;;;;4898323;29;19914;-78
2023/06/24 03:40:15;;;;;;;;;;;;;;;;;;4898363;29;19908;-78
2023/06/24 03:42:41;;;;;;;;;;;;;;;;;;4897952;29;19915;-78
2023/06/24 03:45:08;;;;;;;;;;;;;;;;;;4898201;29;20383;-78
2023/06/24 03:47:34;;;;;;;;;;;;;;;;;;4898683;29;19912;-78
2023/06/24 03:50:00;;;;;;;;;;;;;;;;;;4898445;29;19918;-78
2023/06/24 03:52:26;;;;;;;;;;;;;;;;;;4898161;29;19963;-78
2023/06/24 03:54:53;;;;;;;;;;;;;;;;;;4898075;29;19908;-78
2023/06/24 03:57:19;;;;;;;;;;;;;;;;;;4898075;29;19908;-78
2023/06/24 03:59:45;;;;;;;;;;;;;;;;;;4898080;29;19907;-78
2023/06/24 04:02:13;;;;;;;;;;;;;;;;;;4897904;29;20280;-78
2023/06/24 04:04:40;;;;;;;;;;;;;;;;;;4898000;29;19914;-78
2023/06/24 04:07:06;;;;;;;;;;;;;;;;;;4897982;29;19933;-78
2023/06/24 04:09:32;;;;;;;;;;;;;;;;;;4898298;29;19918;-78
2023/06/24 04:11:58;;;;;;;;;;;;;;;;;;4898076;29;19907;-78
2023/06/24 04:14:25;;;;;;;;;;;;;;;;;;4897837;29;20369;-78
2023/06/24 04:16:51;;;;;;;;;;;;;;;;;;4898112;29;19908;-78
2023/06/24 04:19:17;;;;;;;;;;;;;;;;;;4897963;29;19911;-78
2023/06/24 04:21:43;;;;;;;;;;;;;;;;;;4900901;29;19917;-78
2023/06/24 04:24:09;;;;;;;;;;;;;;;;;;4901570;29;19941;-78
2023/06/24 04:26:36;;;;;;;;;;;;;;;;;;4901009;29;19908;-78
2023/06/24 04:29:02;;;;;;;;;;;;;;;;;;4901554;29;20395;-77
2023/06/24 04:31:28;;;;;;;;;;;;;;;;;;4901437;29;19911;-78
2023/06/24 04:33:54;;;;;;;;;;;;;;;;;;4901370;29;20316;-77
2023/06/24 04:36:21;;;;;;;;;;;;;;;;;;4901504;29;19907;-77
2023/06/24 04:38:47;;;;;;;;;;;;;;;;;;4901375;29;19908;-78
2023/06/24 04:41:13;;;;;;;;;;;;;;;;;;4901026;29;20365;-78
2023/06/24 04:43:39;;;;;;;;;;;;;;;;;;4901263;29;19915;-78
2023/06/24 04:46:05;;;;;;;;;;;;;;;;;;4901348;29;19907;-78
2023/06/24 04:48:31;;;;;;;;;;;;;;;;;;4901669;29;19911;-77
2023/06/24 04:50:58;;;;;;;;;;;;;;;;;;4901548;29;19908;-77
2023/06/24 04:53:24;;;;;;;;;;;;;;;;;;4901490;29;19907;-77
2023/06/24 04:55:50;;;;;;;;;;;;;;;;;;4900866;29;19954;-78
2023/06/24 04:58:16;;;;;;;;;;;;;;;;;;4900964;29;19912;-78
2023/06/24 05:00:43;;;;;;;;;;;;;;;;;;4900994;29;20292;-77
2023/06/24 05:03:09;;;;;;;;;;;;;;;;;;4900927;29;19916;-77
2023/06/24 05:05:35;;;;;;;;;;;;;;;;;;4900957;29;19907;-77
2023/06/24 05:08:01;;;;;;;;;;;;;;;;;;4900910;29;19907;-77
2023/06/24 05:10:27;;;;;;;;;;;;;;;;;;4900505;29;19914;-78
2023/06/24 05:12:54;;;;;;;;;;;;;;;;;;4900774;29;19914;-78
2023/06/24 05:15:20;;;;;;;;;;;;;;;;;;4900856;29;19911;-77
2023/06/24 05:17:46;;;;;;;;;;;;;;;;;;4900863;29;19907;-77
2023/06/24 05:20:13;;;;;;;;;;;;;;;;;;4900861;29;19907;-77
2023/06/24 05:22:39;;;;;;;;;;;;;;;;;;4900314;29;19990;-78
2023/06/24 05:25:05;;;;;;;;;;;;;;;;;;4900315;29;19907;-78
2023/06/24 05:27:31;;;;;;;;;;;;;;;;;;4900492;29;20371;-78
2023/06/24 05:29:57;;;;;;;;;;;;;;;;;;4900857;29;19908;-77
2023/06/24 05:32:24;;;;;;;;;;;;;;;;;;4900116;29;19912;-78
2023/06/24 05:34:50;;;;;;;;;;;;;;;;;;4900716;29;19907;-77
2023/06/24 05:37:16;;;;;;;;;;;;;;;;;;4900400;29;19907;-77
2023/06/24 05:39:43;;;;;;;;;;;;;;;;;;4900039;29;20284;-77
2023/06/24 05:42:09;;;;;;;;;;;;;;;;;;4900512;29;19919;-77
2023/06/24 05:44:35;;;;;;;;;;;;;;;;;;4900403;29;20479;-77
2023/06/24 05:47:01;;;;;;;;;;;;;;;;;;4900260;29;19981;-77
2023/06/24 05:49:27;;;;;;;;;;;;;;;;;;4900098;29;19967;-77
2023/06/24 05:51:54;;;;;;;;;;;;;;;;;;4900170;29;20520;-78
2023/06/24 05:54:20;;;;;;;;;;;;;;;;;;4899693;29;19908;-77
2023/06/24 05:56:46;;;;;;;;;;;;;;;;;;4900062;29;19971;-77
2023/06/24 05:59:12;;;;;;;;;;;;;;;;;;4900302;29;19911;-77
2023/06/24 06:01:38;;;;;;;;;;;;;;;;;;4899898;29;19962;-77
2023/06/24 06:04:05;;;;;;;;;;;;;;;;;;4899868;29;20394;-77
2023/06/24 06:06:31;;;;;;;;;;;;;;;;;;4900066;29;19917;-77
2023/06/24 06:08:57;;;;;;;;;;;;;;;;;;4899565;29;20000;-77
2023/06/24 06:11:23;;;;;;;;;;;;;;;;;;4900169;29;19912;-77
2023/06/24 06:13:50;;;;;;;;;;;;;;;;;;4899676;29;20387;-77
2023/06/24 06:16:16;;;;;;;;;;;;;;;;;;4900142;29;19908;-78
2023/06/24 06:18:42;;;;;;;;;;;;;;;;;;4899707;29;19912;-78
2023/06/24 06:21:08;;;;;;;;;;;;;;;;;;4899706;29;20363;-77
2023/06/24 06:23:34;;;;;;;;;;;;;;;;;;4899108;29;19930;-77
2023/06/24 06:26:00;;;;;;;;;;;;;;;;;;4899428;29;19908;-77
2023/06/24 06:28:27;;;;;;;;;;;;;;;;;;4899587;29;20324;-77
2023/06/24 06:30:53;;;;;;;;;;;;;;;;;;4882918;29;19911;-77
2023/06/24 06:33:19;;;;;;;;;;;;;;;;;;4899584;29;19907;-77
2023/06/24 06:35:45;;;;;;;;;;;;;;;;;;4899402;29;19913;-74
2023/06/24 06:38:11;;;;;;;;;;;;;;;;;;4899297;29;19914;-78
2023/06/24 06:40:38;;;;;;;;;;;;;;;;;;4899272;29;19911;-78
2023/06/24 06:43:04;;;;;;;;;;;;;;;;;;4899082;29;19915;-78
2023/06/24 06:45:30;;;;;;;;;;;;;;;;;;4898463;29;19907;-78
2023/06/24 06:47:56;;;;;;;;;;;;;;;;;;4899357;29;19908;-78
2023/06/24 06:50:22;;;;;;;;;;;;;;;;;;4898574;29;19912;-77
2023/06/24 06:52:48;;;;;;;;;;;;;;;;;;4898979;29;20357;-78
2023/06/24 06:55:15;;;;;;;;;;;;;;;;;;4899258;29;19907;-78
2023/06/24 06:57:41;;;;;;;;;;;;;;;;;;4898975;29;20357;-78
2023/06/24 07:00:07;;;;;;;;;;;;;;;;;;4899335;29;19963;-78
2023/06/24 07:02:33;;;;;;;;;;;;;;;;;;4898793;29;19943;-78
2023/06/24 07:05:00;;;;;;;;;;;;;;;;;;4898509;29;19907;-78
2023/06/24 07:07:26;;;;;;;;;;;;;;;;;;4898755;29;19914;-78
2023/06/24 07:09:53;;;;;;;;;;;;;;;;;;4898699;29;20199;-78
2023/06/24 07:12:20;;;;;;;;;;;;;;;;;;4898707;29;19911;-78
2023/06/24 07:14:47;;;;;;;;;;;;;;;;;;4881774;29;19914;-78
2023/06/24 07:17:13;;;;;;;;;;;;;;;;;;4898574;29;20334;-78
2023/06/24 07:19:39;;;;;;;;;;;;;;;;;;4898537;29;19913;-78
2023/06/24 07:22:05;;;;;;;;;;;;;;;;;;4898438;29;19937;-78
2023/06/24 07:24:31;;;;;;;;;;;;;;;;;;4898469;29;19925;-78
2023/06/24 07:26:57;;;;;;;;;;;;;;;;;;4898205;29;20261;-78
2023/06/24 07:29:24;;;;;;;;;;;;;;;;;;4898374;29;19911;-78
2023/06/24 07:31:50;;;;;;;;;;;;;;;;;;4898126;29;19971;-78
2023/06/24 07:34:16;;;;;;;;;;;;;;;;;;4898032;29;19917;-78
2023/06/24 07:36:42;;;;;;;;;;;;;;;;;;4898337;29;19915;-78
2023/06/24 07:39:08;;;;;;;;;;;;;;;;;;4898263;29;19935;-78
2023/06/24 07:41:34;;;;;;;;;;;;;;;;;;4898106;29;19907;-78
2023/06/24 07:44:01;;;;;;;;;;;;;;;;;;4881677;29;20365;-78
2023/06/24 07:46:28;;;;;;;;;;;;;;;;;;4898388;29;19912;-79
2023/06/24 07:48:54;;;;;;;;;;;;;;;;;;4898195;29;19912;-79
2023/06/24 07:51:20;;;;;;;;;;;;;;;;;;4898081;29;19962;-78
2023/06/24 07:53:46;;;;;;;;;;;;;;;;;;4898096;29;19976;-78
2023/06/24 07:56:12;;;;;;;;;;;;;;;;;;4898204;29;19907;-79
2023/06/24 07:58:38;;;;;;;;;;;;;;;;;;4881375;29;20151;-79
2023/06/24 08:01:05;;;;;;;;;;;;;;;;;;4898043;29;20386;-79
2023/06/24 08:03:32;;;;;;;;;;;;;;;;;;4897551;29;19919;-79
2023/06/24 08:05:58;;;;;;;;;;;;;;;;;;4897999;29;19907;-79
2023/06/24 08:08:24;;;;;;;;;;;;;;;;;;4898185;29;19907;-79
2023/06/24 08:10:50;;;;;;;;;;;;;;;;;;4898000;29;19913;-79
2023/06/24 08:13:16;;;;;;;;;;;;;;;;;;4897907;29;19911;-79
2023/06/24 08:15:42;;;;;;;;;;;;;;;;;;4897862;29;19911;-80
2023/06/24 08:18:09;;;;;;;;;;;;;;;;;;4897537;29;20174;-80
2023/06/24 08:20:35;;;;;;;;;;;;;;;;;;4897912;29;20353;-80
2023/06/24 08:23:01;;;;;;;;;;;;;;;;;;4880975;29;19919;-80
2023/06/24 08:25:27;;;;;;;;;;;;;;;;;;4881476;29;19911;-80
2023/06/24 08:27:53;;;;;;;;;;;;;;;;;;4897878;29;19907;-80
2023/06/24 08:30:20;;;;;;;;;;;;;;;;;;4897768;29;19913;-80
2023/06/24 08:32:46;;;;;;;;;;;;;;;;;;4897521;29;19911;-81
2023/06/24 08:35:12;;;;;;;;;;;;;;;;;;4897761;29;19922;-81
2023/06/24 08:37:38;;;;;;;;;;;;;;;;;;4898031;29;19908;-80
2023/06/24 08:40:04;;;;;;;;;;;;;;;;;;4897699;29;19914;-81
2023/06/24 08:42:31;;;;;;;;;;;;;;;;;;4897613;29;20309;-81
2023/06/24 08:44:57;;;;;;;;;;;;;;;;;;4897778;29;19912;-80
2023/06/24 08:47:23;;;;;;;;;;;;;;;;;;4897325;29;20408;-82
2023/06/24 08:49:50;;;;;;;;;;;;;;;;;;4897883;29;19907;-82
2023/06/24 08:52:16;;;;;;;;;;;;;;;;;;4897597;29;19911;-82
2023/06/24 08:54:43;;;;;;;;;;;;;;;;;;4897611;29;20304;-82
2023/06/24 08:57:14;;;;;;;;;;;;;;;;;;4897514;29;19907;-82
2023/06/24 08:59:40;;;;;;;;;;;;;;;;;;4897818;29;19907;-82
2023/06/24 09:02:06;;;;;;;;;;;;;;;;;;4897292;29;19920;-82
2023/06/24 09:04:33;;;;;;;;;;;;;;;;;;4897490;29;19915;-82
2023/06/24 09:06:59;;;;;;;;;;;;;;;;;;4898022;29;19935;-82
2023/06/24 09:09:25;;;;;;;;;;;;;;;;;;4901219;29;19916;-83
2023/06/24 09:11:52;;;;;;;;;;;;;;;;;;4901188;29;19907;-82
2023/06/24 09:14:18;;;;;;;;;;;;;;;;;;4900731;29;19915;-82
2023/06/24 09:16:45;;;;;;;;;;;;;;;;;;4900371;29;19930;-82
2023/06/24 09:19:11;;;;;;;;;;;;;;;;;;4900787;29;19907;-83
2023/06/24 09:21:38;;;;;;;;;;;;;;;;;;4900639;29;20353;-83
2023/06/24 09:24:04;;;;;;;;;;;;;;;;;;4900403;29;19920;-82
2023/06/24 09:26:31;;;;;;;;;;;;;;;;;;4900413;29;19918;-83
2023/06/24 09:28:57;;;;;;;;;;;;;;;;;;4900646;29;19908;-83
2023/06/24 09:31:23;;;;;;;;;;;;;;;;;;4900086;29;19911;-83
2023/06/24 09:33:49;;;;;;;;;;;;;;;;;;4900441;29;19911;-83
2023/06/24 09:36:16;;;;;;;;;;;;;;;;;;4900477;29;19914;-83
2023/06/24 09:38:42;;;;;;;;;;;;;;;;;;4900628;29;19911;-83
2023/06/24 09:41:08;;;;;;;;;;;;;;;;;;4900672;29;19914;-83
2023/06/24 09:43:35;;;;;;;;;;;;;;;;;;4900329;29;19920;-83
2023/06/24 09:46:02;;;;;;;;;;;;;;;;;;4899957;29;19914;-76
2023/06/24 09:48:28;;;;;;;;;;;;;;;;;;4900503;29;19907;-76
2023/06/24 09:50:54;;;;;;;;;;;;;;;;;;4900162;29;19935;-76
2023/06/24 09:53:20;;;;;;;;;;;;;;;;;;4900306;29;19908;-76
2023/06/24 09:55:46;;;;;;;;;;;;;;;;;;4900418;29;19911;-76
2023/06/24 09:58:13;;;;;;;;;;;;;;;;;;4900041;29;20338;-76
2023/06/24 10:00:39;;;;;;;;;;;;;;;;;;4899678;29;19917;-76
2023/06/24 10:03:05;;;;;;;;;;;;;;;;;;4899801;29;19915;-76
2023/06/24 10:05:31;;;;;;;;;;;;;;;;;;4899917;29;19972;-76
2023/06/24 10:07:57;;;;;;;;;;;;;;;;;;4899903;29;20329;-76
2023/06/24 10:10:24;;;;;;;;;;;;;;;;;;4900046;29;19907;-76
2023/06/24 10:12:50;;;;;;;;;;;;;;;;;;4899867;29;19907;-76
2023/06/24 10:15:16;;;;;;;;;;;;;;;;;;4899364;29;20373;-76
2023/06/24 10:17:42;;;;;;;;;;;;;;;;;;4899635;29;19912;-76
2023/06/24 10:20:08;;;;;;;;;;;;;;;;;;4899490;29;20345;-76
2023/06/24 10:22:36;;;;;;;;;;;;;;;;;;4899267;29;19919;-76
2023/06/24 10:25:02;;;;;;;;;;;;;;;;;;4899590;29;19912;-76
2023/06/24 10:27:32;;;;;;;;;;;;;;;;;;4899395;29;19908;-76
2023/06/24 10:29:58;;;;;;;;;;;;;;;;;;4899163;29;19914;-76
2023/06/24 10:32:24;;;;;;;;;;;;;;;;;;4899120;29;19919;-77
2023/06/24 10:34:50;;;;;;;;;;;;;;;;;;4899676;29;19911;-76
2023/06/24 10:37:17;;;;;;;;;;;;;;;;;;4899377;29;19911;-77
2023/06/24 10:39:43;;;;;;;;;;;;;;;;;;4899160;29;20266;-77
2023/06/24 10:42:09;;;;;;;;;;;;;;;;;;4899415;29;19916;-77
2023/06/24 10:44:35;;;;;;;;;;;;;;;;;;4899194;29;19914;-77
2023/06/24 10:47:02;;;;;;;;;;;;;;;;;;4899171;29;19907;-77
2023/06/24 10:49:28;;;;;;;;;;;;;;;;;;4899405;29;19927;-77
2023/06/24 10:51:54;;;;;;;;;;;;;;;;;;4899066;29;19914;-85
2023/06/24 10:54:20;;;;;;;;;;;;;;;;;;4898990;29;20295;-86
2023/06/24 10:56:46;;;;;;;;;;;;;;;;;;4899098;29;19955;-84
2023/06/24 10:59:13;;;;;;;;;;;;;;;;;;4898958;29;19911;-85
2023/06/24 11:01:39;;;;;;;;;;;;;;;;;;4899218;29;19907;-85
2023/06/24 11:04:05;;;;;;;;;;;;;;;;;;4898657;29;19915;-85
2023/06/24 11:06:32;;;;;;;;;;;;;;;;;;4898796;29;19911;-85
2023/06/24 11:08:58;;;;;;;;;;;;;;;;;;4898733;29;19907;-84
2023/06/24 11:11:25;;;;;;;;;;;;;;;;;;4881701;29;19908;-85
2023/06/24 11:13:51;;;;;;;;;;;;;;;;;;4898595;29;19907;-85
2023/06/24 11:16:17;;;;;;;;;;;;;;;;;;4898841;29;19907;-85
2023/06/24 11:18:43;;;;;;;;;;;;;;;;;;4898637;29;19908;-85
2023/06/24 11:21:09;;;;;;;;;;;;;;;;;;4898633;29;20349;-85
2023/06/24 11:23:36;;;;;;;;;;;;;;;;;;4898230;29;20368;-84
2023/06/24 11:26:02;;;;;;;;;;;;;;;;;;4898363;29;19970;-85
2023/06/24 11:28:28;;;;;;;;;;;;;;;;;;4898373;29;19914;-84
2023/06/24 11:30:54;;;;;;;;;;;;;;;;;;4898091;29;19917;-85
2023/06/24 11:33:20;;;;;;;;;;;;;;;;;;4898390;29;19907;-84
2023/06/24 11:35:46;;;;;;;;;;;;;;;;;;4898678;29;19913;-84
2023/06/24 11:38:13;;;;;;;;;;;;;;;;;;4898612;29;19911;-84
2023/06/24 11:40:39;;;;;;;;;;;;;;;;;;4897959;29;19918;-84
2023/06/24 11:43:05;;;;;;;;;;;;;;;;;;4898160;29;19963;-84
2023/06/24 11:45:32;;;;;;;;;;;;;;;;;;4898541;29;19920;-84
2023/06/24 11:47:58;;;;;;;;;;;;;;;;;;4898526;29;19911;-84
2023/06/24 11:50:24;;;;;;;;;;;;;;;;;;4898426;29;19930;-84
2023/06/24 11:52:52;;;;;;;;;;;;;;;;;;4898393;29;19907;-84
2023/06/24 11:55:18;;;;;;;;;;;;;;;;;;4897792;29;19912;-84
2023/06/24 11:57:44;;;;;;;;;;;;;;;;;;4897985;29;19915;-84
2023/06/24 12:00:10;;;;;;;;;;;;;;;;;;4881404;29;19963;-83
2023/06/24 12:02:36;;;;;;;;;;;;;;;;;;4897890;29;19927;-83
2023/06/24 12:05:03;;;;;;;;;;;;;;;;;;4898219;29;19937;-84
2023/06/24 12:07:29;;;;;;;;;;;;;;;;;;4898293;29;19911;-84
2023/06/24 12:09:55;;;;;;;;;;;;;;;;;;4897597;29;20425;-84
2023/06/24 12:12:21;;;;;;;;;;;;;;;;;;4897846;29;19918;-84
2023/06/24 12:14:47;;;;;;;;;;;;;;;;;;4897958;29;19911;-70
2023/06/24 12:17:13;;;;;;;;;;;;;;;;;;4897813;29;19914;-72
2023/06/24 12:19:40;;;;;;;;;;;;;;;;;;4897919;29;19933;-73
2023/06/24 12:22:06;;;;;;;;;;;;;;;;;;4897957;29;19929;-75
2023/06/24 12:24:33;;;;;;;;;;;;;;;;;;4897472;29;19926;-77
2023/06/24 12:26:59;;;;;;;;;;;;;;;;;;4897624;29;19907;-71
2023/06/24 12:29:25;;;;;;;;;;;;;;;;;;4897964;29;19917;-70
2023/06/24 12:31:52;;;;;;;;;;;;;;;;;;4897517;29;19908;-73
2023/06/24 12:34:18;;;;;;;;;;;;;;;;;;4898071;29;19986;-74
2023/06/24 12:36:44;;;;;;;;;;;;;;;;;;4897776;29;19914;-73
2023/06/24 12:39:10;;;;;;;;;;;;;;;;;;4897287;29;19907;-76
2023/06/24 12:41:36;;;;;;;;;;;;;;;;;;4897624;29;19907;-76
2023/06/24 12:44:03;;;;;;;;;;;;;;;;;;4900836;29;19934;-77
2023/06/24 12:46:29;;;;;;;;;;;;;;;;;;4901390;29;20272;-67
2023/06/24 12:48:56;;;;;;;;;;;;;;;;;;4901631;29;19911;-78
2023/06/24 12:51:22;;;;;;;;;;;;;;;;;;4901192;29;19937;-78
2023/06/24 12:53:49;;;;;;;;;;;;;;;;;;4900805;29;20395;-70
2023/06/24 12:56:15;;;;;;;;;;;;;;;;;;4901248;29;20364;-75
2023/06/24 12:58:41;;;;;;;;;;;;;;;;;;4901391;29;19987;-74
2023/06/24 13:01:07;;;;;;;;;;;;;;;;;;4901031;29;20296;-74
2023/06/24 13:03:33;;;;;;;;;;;;;;;;;;4900994;29;19921;-68
2023/06/24 13:06:00;;;;;;;;;;;;;;;;;;4901326;29;19908;-69
2023/06/24 13:08:26;;;;;;;;;;;;;;;;;;4900616;29;19907;-69
2023/06/24 13:10:52;;;;;;;;;;;;;;;;;;4901215;29;19914;-74
2023/06/24 13:13:18;;;;;;;;;;;;;;;;;;4900815;29;20288;-74
2023/06/24 13:15:44;;;;;;;;;;;;;;;;;;4900975;29;20037;-74
2023/06/24 13:18:10;;;;;;;;;;;;;;;;;;4901159;29;19915;-79
2023/06/24 13:20:37;;;;;;;;;;;;;;;;;;4900752;29;19908;-86
2023/06/24 13:23:03;;;;;;;;;;;;;;;;;;4900231;29;19923;-83
2023/06/24 13:25:29;;;;;;;;;;;;;;;;;;4884029;29;20284;-84
2023/06/24 13:27:55;;;;;;;;;;;;;;;;;;4900462;29;19913;-82
2023/06/24 13:30:21;;;;;;;;;;;;;;;;;;4883924;29;20428;-79
2023/06/24 13:32:49;;;;;;;;;;;;;;;;;;4900342;29;19959;-78
2023/06/24 13:35:15;;;;;;;;;;;;;;;;;;4900805;29;19911;-74
2023/06/24 13:37:43;;;;;;;;;;;;;;;;;;4899996;29;19914;-67
2023/06/24 13:40:09;;;;;;;;;;;;;;;;;;4900293;29;20376;-76
2023/06/24 13:42:35;;;;;;;;;;;;;;;;;;4900225;29;19911;-77
2023/06/24 13:45:01;;;;;;;;;;;;;;;;;;4900590;29;19911;-74
2023/06/24 13:47:28;;;;;;;;;;;;;;;;;;4900647;29;19907;-75
2023/06/24 13:49:54;;;;;;;;;;;;;;;;;;4900265;29;19914;-75
2023/06/24 13:52:21;;;;;;;;;;;;;;;;;;4899741;29;19933;-67
2023/06/24 13:54:47;;;;;;;;;;;;;;;;;;4900005;29;19912;-68
2023/06/24 13:57:13;;;;;;;;;;;;;;;;;;4883566;29;19933;-68
2023/06/24 13:59:39;;;;;;;;;;;;;;;;;;4899962;29;19914;-69
2023/06/24 14:02:07;;;;;;;;;;;;;;;;;;4899918;29;19907;-82
2023/06/24 14:04:34;;;;;;;;;;;;;;;;;;4899817;29;19914;-75
2023/06/24 14:07:00;;;;;;;;;;;;;;;;;;4899591;29;19908;-74
2023/06/24 14:09:26;;;;;;;;;;;;;;;;;;4899760;29;19918;-73
2023/06/24 14:11:52;;;;;;;;;;;;;;;;;;4899709;29;20317;-70
2023/06/24 14:14:18;;;;;;;;;;;;;;;;;;4900088;29;19929;-85
2023/06/24 14:16:44;;;;;;;;;;;;;;;;;;4899710;29;19914;-87
2023/06/24 14:19:11;;;;;;;;;;;;;;;;;;4899751;29;20353;-84
2023/06/24 14:21:37;;;;;;;;;;;;;;;;;;4899326;29;19913;-84
2023/06/24 14:24:03;;;;;;;;;;;;;;;;;;4899367;29;19945;-80
2023/06/24 14:26:29;;;;;;;;;;;;;;;;;;4899442;29;20316;-83
2023/06/24 14:28:56;;;;;;;;;;;;;;;;;;4899734;29;19907;-84
2023/06/24 14:31:22;;;;;;;;;;;;;;;;;;4899323;29;19914;-80
2023/06/24 14:33:48;;;;;;;;;;;;;;;;;;4899442;29;19912;-80
2023/06/24 14:36:14;;;;;;;;;;;;;;;;;;4899314;29;19907;-79
2023/06/24 14:38:42;;;;;;;;;;;;;;;;;;4899700;29;19912;-79
2023/06/24 14:41:09;;;;;;;;;;;;;;;;;;4899318;29;19912;-81
2023/06/24 14:43:35;;;;;;;;;;;;;;;;;;4882412;29;20352;-81
2023/06/24 14:46:02;;;;;;;;;;;;;;;;;;4899554;29;19907;-81
2023/06/24 14:48:28;;;;;;;;;;;;;;;;;;4899438;29;19930;-80
2023/06/24 14:50:54;;;;;;;;;;;;;;;;;;4899190;29;19911;-86
2023/06/24 14:53:20;;;;;;;;;;;;;;;;;;4898969;29;19922;-86
2023/06/24 14:55:46;;;;;;;;;;;;;;;;;;4899055;29;19907;-85
2023/06/24 14:58:12;;;;;;;;;;;;;;;;;;4899027;29;20324;-75
2023/06/24 15:00:39;;;;;;;;;;;;;;;;;;4899233;29;19907;-83
2023/06/24 15:03:07;;;;;;;;;;;;;;;;;;4898800;29;19923;-83
2023/06/24 15:05:34;;;;;;;;;;;;;;;;;;4897977;29;19907;-79
2023/06/24 15:08:00;;;;;;;;;;;;;;;;;;4898900;29;20383;-79
2023/06/24 15:10:26;;;;;;;;;;;;;;;;;;4899040;29;19907;-79
2023/06/24 15:12:52;;;;;;;;;;;;;;;;;;4898734;29;19908;-79
2023/06/24 15:15:18;;;;;;;;;;;;;;;;;;4898695;29;19916;-79
2023/06/24 15:17:45;;;;;;;;;;;;;;;;;;4898202;29;19908;-76
2023/06/24 15:20:11;;;;;;;;;;;;;;;;;;4898634;29;19907;-79
2023/06/24 15:22:37;;;;;;;;;;;;;;;;;;4898526;29;19924;-78
2023/06/24 15:25:03;;;;;;;;;;;;;;;;;;4898519;29;20376;-78
2023/06/24 15:27:29;;;;;;;;;;;;;;;;;;4898751;29;19962;-79
2023/06/24 15:29:56;;;;;;;;;;;;;;;;;;4898358;29;19907;-77
2023/06/24 15:32:22;;;;;;;;;;;;;;;;;;4897846;29;19911;-79
2023/06/24 15:34:48;;;;;;;;;;;;;;;;;;4898477;29;19914;-78
2023/06/24 15:37:14;;;;;;;;;;;;;;;;;;4881657;29;19963;-80
2023/06/24 15:39:40;;;;;;;;;;;;;;;;;;4898698;29;19907;-79
2023/06/24 15:42:07;;;;;;;;;;;;;;;;;;4898219;29;20345;-79
2023/06/24 15:44:33;;;;;;;;;;;;;;;;;;4898168;29;19941;-67
2023/06/24 15:46:59;;;;;;;;;;;;;;;;;;4881248;29;19927;-67
2023/06/24 15:49:25;;;;;;;;;;;;;;;;;;4898180;29;20424;-78
2023/06/24 15:51:52;;;;;;;;;;;;;;;;;;4898085;29;19912;-80
2023/06/24 15:54:18;;;;;;;;;;;;;;;;;;4898186;29;20383;-74
2023/06/24 15:56:44;;;;;;;;;;;;;;;;;;4898041;29;19914;-74
2023/06/24 15:59:10;;;;;;;;;;;;;;;;;;4898112;29;20284;-90
2023/06/24 16:01:36;;;;;;;;;;;;;;;;;;4897653;29;19908;-88
2023/06/24 16:04:02;;;;;;;;;;;;;;;;;;4897970;29;19929;-74
2023/06/24 16:06:29;;;;;;;;;;;;;;;;;;4881526;29;19907;-76
2023/06/24 16:08:56;;;;;;;;;;;;;;;;;;4865740;29;19907;-78
2023/06/24 16:11:22;;;;;;;;;;;;;;;;;;4897977;29;19907;-78
2023/06/24 16:13:48;;;;;;;;;;;;;;;;;;4897886;29;20333;-76
2023/06/24 16:16:14;;;;;;;;;;;;;;;;;;4898297;29;19907;-80
2023/06/24 16:18:40;;;;;;;;;;;;;;;;;;4902179;29;19930;-83
2023/06/24 16:21:07;;;;;;;;;;;;;;;;;;4902019;29;19917;-82
2023/06/24 16:23:33;;;;;;;;;;;;;;;;;;4884692;29;19924;-84
2023/06/24 16:26:00;;;;;;;;;;;;;;;;;;4901633;29;19907;-86
2023/06/24 16:28:26;;;;;;;;;;;;;;;;;;4901513;29;19913;-68
2023/06/24 16:30:52;;;;;;;;;;;;;;;;;;4901470;29;19918;-68
2023/06/24 16:33:19;;;;;;;;;;;;;;;;;;4901863;29;19935;-68
2023/06/24 16:35:45;;;;;;;;;;;;;;;;;;4901594;29;19913;-68
2023/06/24 16:38:11;;;;;;;;;;;;;;;;;;4901844;29;19933;-68